sensor_id;sensor_type;location;lat;lon;timestamp;temperature;humidity
37310;DHT22;23195;47.744;7.358;2022-10-29T05:18:28;16.10;99.90
37310;DHT22;23195;47.744;7.358;2022-10-29T05:20:55;16.00;99.90
37310;DHT22;23195;47.744;7.358;2022-10-29T05:23:21;15.30;99.90
37310;DHT22;23195;47.744;7.358;2022-10-29T05:25:47;15.80;99.90
37310;DHT22;23195;47.744;7.358;2022-10-29T05:28:21;15.80;99.90
37310;DHT22;23195;47.744;7.358;2022-10-29T05:30:49;15.80;99.90
37310;DHT22;23195;47.744;7.358;2022-10-29T05:33:18;15.80;99.90
37310;DHT22;23195;47.744;7.358;2022-10-29T05:35:57;15.80;99.90
37310;DHT22;23195;47.744;7.358;2022-10-29T05:38:34;15.30;99.90
37310;DHT22;23195;47.744;7.358;2022-10-29T05:41:05;14.20;99.90
37310;DHT22;23195;47.744;7.358;2022-10-29T05:43:31;15.50;99.90
37310;DHT22;23195;47.744;7.358;2022-10-29T05:45:57;15.50;99.90
37310;DHT22;23195;47.744;7.358;2022-10-29T05:48:22;15.70;99.90
37310;DHT22;23195;47.744;7.358;2022-10-29T05:51:00;15.70;99.90
37310;DHT22;23195;47.744;7.358;2022-10-29T05:53:33;15.80;99.90
37310;DHT22;23195;47.744;7.358;2022-10-29T05:56:05;15.80;99.90
37310;DHT22;23195;47.744;7.358;2022-10-29T05:58:48;15.90;99.90
37310;DHT22;23195;47.744;7.358;2022-10-29T06:01:14;16.00;99.90
37310;DHT22;23195;47.744;7.358;2022-10-29T06:03:41;16.00;99.90
37310;DHT22;23195;47.744;7.358;2022-10-29T06:06:06;16.00;99.90
37310;DHT22;23195;47.744;7.358;2022-10-29T06:08:40;16.00;99.90
37310;DHT22;23195;47.744;7.358;2022-10-29T06:11:08;15.80;99.90
37310;DHT22;23195;47.744;7.358;2022-10-29T06:13:34;15.70;99.90
37310;DHT22;23195;47.744;7.358;2022-10-29T06:16:03;15.70;99.90
37310;DHT22;23195;47.744;7.358;2022-10-29T06:18:29;15.30;99.90
37310;DHT22;23195;47.744;7.358;2022-10-29T06:20:57;15.70;99.90
37310;DHT22;23195;47.744;7.358;2022-10-29T06:23:33;15.70;99.90
37310;DHT22;23195;47.744;7.358;2022-10-29T06:25:59;15.60;99.90
37310;DHT22;23195;47.744;7.358;2022-10-29T06:28:31;15.60;99.90
37310;DHT22;23195;47.744;7.358;2022-10-29T06:31:00;15.60;99.90
37310;DHT22;23195;47.744;7.358;2022-10-29T06:33:25;15.60;99.90
37310;DHT22;23195;47.744;7.358;2022-10-29T06:35:51;15.60;99.90
37310;DHT22;23195;47.744;7.358;2022-10-29T06:38:20;15.70;99.90
37310;DHT22;23195;47.744;7.358;2022-10-29T06:40:51;15.70;99.90
37310;DHT22;23195;47.744;7.358;2022-10-29T06:43:18;15.70;99.90
37310;DHT22;23195;47.744;7.358;2022-10-29T06:45:44;15.60;99.90
37310;DHT22;23195;47.744;7.358;2022-10-29T06:48:10;15.60;99.90
37310;DHT22;23195;47.744;7.358;2022-10-29T06:50:35;15.60;99.90
37310;DHT22;23195;47.744;7.358;2022-10-29T06:53:03;15.60;99.90
37310;DHT22;23195;47.744;7.358;2022-10-29T06:55:29;15.60;99.90
37310;DHT22;23195;47.744;7.358;2022-10-29T06:58:02;15.50;99.90
37310;DHT22;23195;47.744;7.358;2022-10-29T07:00:29;15.50;99.90
37310;DHT22;23195;47.744;7.358;2022-10-29T07:02:55;15.40;99.90
37310;DHT22;23195;47.744;7.358;2022-10-29T07:05:22;15.30;99.90
37310;DHT22;23195;47.744;7.358;2022-10-29T07:07:48;15.30;99.90
37310;DHT22;23195;47.744;7.358;2022-10-29T07:10:14;15.30;99.90
37310;DHT22;23195;47.744;7.358;2022-10-29T07:12:44;15.30;99.90
37310;DHT22;23195;47.744;7.358;2022-10-29T07:15:11;15.20;99.90
37310;DHT22;23195;47.744;7.358;2022-10-29T07:17:36;15.30;99.90
37310;DHT22;23195;47.744;7.358;2022-10-29T07:20:03;15.20;99.90
37310;DHT22;23195;47.744;7.358;2022-10-29T07:22:30;15.10;99.90
37310;DHT22;23195;47.744;7.358;2022-10-29T07:24:56;15.40;99.90
37310;DHT22;23195;47.744;7.358;2022-10-29T07:27:21;15.60;99.90
37310;DHT22;23195;47.744;7.358;2022-10-29T07:29:47;16.00;99.90
37310;DHT22;23195;47.744;7.358;2022-10-29T07:32:13;16.40;99.90
37310;DHT22;23195;47.744;7.358;2022-10-29T07:34:39;16.90;99.90
37310;DHT22;23195;47.744;7.358;2022-10-29T07:37:04;17.40;99.90
37310;DHT22;23195;47.744;7.358;2022-10-29T07:39:30;17.60;99.90
37310;DHT22;23195;47.744;7.358;2022-10-29T07:41:56;17.60;99.90
37310;DHT22;23195;47.744;7.358;2022-10-29T07:44:22;17.80;99.90
37310;DHT22;23195;47.744;7.358;2022-10-29T07:46:47;18.00;99.90
37310;DHT22;23195;47.744;7.358;2022-10-29T07:49:16;18.10;99.90
37310;DHT22;23195;47.744;7.358;2022-10-29T07:51:41;18.10;99.90
37310;DHT22;23195;47.744;7.358;2022-10-29T07:54:07;18.10;99.90
37310;DHT22;23195;47.744;7.358;2022-10-29T07:56:33;18.10;99.90
37310;DHT22;23195;47.744;7.358;2022-10-29T07:58:59;18.10;99.90
37310;DHT22;23195;47.744;7.358;2022-10-29T08:01:25;18.10;99.90
37310;DHT22;23195;47.744;7.358;2022-10-29T08:03:51;18.20;99.90
37310;DHT22;23195;47.744;7.358;2022-10-29T08:06:24;18.30;99.90
37310;DHT22;23195;47.744;7.358;2022-10-29T08:08:49;18.30;99.90
37310;DHT22;23195;47.744;7.358;2022-10-29T08:11:15;18.30;99.90
37310;DHT22;23195;47.744;7.358;2022-10-29T08:13:41;18.20;99.90
37310;DHT22;23195;47.744;7.358;2022-10-29T08:16:07;18.30;99.90
37310;DHT22;23195;47.744;7.358;2022-10-29T08:18:32;18.20;99.90
37310;DHT22;23195;47.744;7.358;2022-10-29T08:21:03;18.20;99.90
37310;DHT22;23195;47.744;7.358;2022-10-29T08:23:29;18.20;99.90
37310;DHT22;23195;47.744;7.358;2022-10-29T08:25:57;18.10;99.90
37310;DHT22;23195;47.744;7.358;2022-10-29T08:28:23;18.20;99.90
37310;DHT22;23195;47.744;7.358;2022-10-29T08:30:49;18.20;99.90
37310;DHT22;23195;47.744;7.358;2022-10-29T08:33:15;18.20;99.90
37310;DHT22;23195;47.744;7.358;2022-10-29T08:35:41;18.20;99.90
37310;DHT22;23195;47.744;7.358;2022-10-29T08:38:07;18.60;99.90
37310;DHT22;23195;47.744;7.358;2022-10-29T08:45:46;17.90;99.90
37310;DHT22;23195;47.744;7.358;2022-10-29T08:53:38;17.90;99.90
37310;DHT22;23195;47.744;7.358;2022-10-29T08:56:11;17.90;99.90
37310;DHT22;23195;47.744;7.358;2022-10-29T08:58:54;18.00;99.90
37310;DHT22;23195;47.744;7.358;2022-10-29T09:01:24;18.00;99.90
37310;DHT22;23195;47.744;7.358;2022-10-29T09:03:51;18.00;99.90
37310;DHT22;23195;47.744;7.358;2022-10-29T09:06:39;18.00;99.90
37310;DHT22;23195;47.744;7.358;2022-10-29T09:12:31;18.10;99.90
37310;DHT22;23195;47.744;7.358;2022-10-29T09:26:42;18.60;99.90
37310;DHT22;23195;47.744;7.358;2022-10-29T09:34:56;18.80;99.90
37310;DHT22;23195;47.744;7.358;2022-10-29T09:37:53;18.90;99.90
37310;DHT22;23195;47.744;7.358;2022-10-29T09:42:58;19.40;99.90
37310;DHT22;23195;47.744;7.358;2022-10-29T09:45:40;19.60;99.90
37310;DHT22;23195;47.744;7.358;2022-10-29T09:51:25;20.00;99.90
37310;DHT22;23195;47.744;7.358;2022-10-29T09:53:59;20.20;99.90
37310;DHT22;23195;47.744;7.358;2022-10-29T09:56:29;20.30;99.90
37310;DHT22;23195;47.744;7.358;2022-10-29T09:59:23;20.30;99.90
37310;DHT22;23195;47.744;7.358;2022-10-29T10:01:47;20.40;99.90
37310;DHT22;23195;47.744;7.358;2022-10-29T10:04:33;20.40;99.90
37310;DHT22;23195;47.744;7.358;2022-10-29T10:09:59;20.50;99.90
37310;DHT22;23195;47.744;7.358;2022-10-29T10:12:49;20.40;99.90
37310;DHT22;23195;47.744;7.358;2022-10-29T10:15:22;20.40;99.90
37310;DHT22;23195;47.744;7.358;2022-10-29T10:18:02;20.50;99.90
37310;DHT22;23195;47.744;7.358;2022-10-29T10:22:57;20.50;99.90
37310;DHT22;23195;47.744;7.358;2022-10-29T10:25:39;20.60;99.90
37310;DHT22;23195;47.744;7.358;2022-10-29T10:30:45;20.70;99.90
37310;DHT22;23195;47.744;7.358;2022-10-29T10:33:35;20.90;99.90
37310;DHT22;23195;47.744;7.358;2022-10-29T10:36:06;21.00;99.90
37310;DHT22;23195;47.744;7.358;2022-10-29T10:38:54;21.10;99.90
37310;DHT22;23195;47.744;7.358;2022-10-29T10:41:27;21.30;99.90
37310;DHT22;23195;47.744;7.358;2022-10-29T10:43:57;21.40;99.90
37310;DHT22;23195;47.744;7.358;2022-10-29T10:46:37;21.50;99.90
37310;DHT22;23195;47.744;7.358;2022-10-29T10:51:37;21.70;99.90
37310;DHT22;23195;47.744;7.358;2022-10-29T10:56:58;21.70;99.90
37310;DHT22;23195;47.744;7.358;2022-10-29T10:59:37;21.80;99.90
37310;DHT22;23195;47.744;7.358;2022-10-29T11:02:30;21.80;99.90
37310;DHT22;23195;47.744;7.358;2022-10-29T11:05:03;21.80;99.90
37310;DHT22;23195;47.744;7.358;2022-10-29T11:07:39;21.80;99.90
37310;DHT22;23195;47.744;7.358;2022-10-29T11:10:10;21.70;99.90
37310;DHT22;23195;47.744;7.358;2022-10-29T11:12:47;22.00;99.90
37310;DHT22;23195;47.744;7.358;2022-10-29T11:15:55;22.40;99.90
37310;DHT22;23195;47.744;7.358;2022-10-29T11:18:17;22.10;99.90
37310;DHT22;23195;47.744;7.358;2022-10-29T11:20:58;22.30;99.90
37310;DHT22;23195;47.744;7.358;2022-10-29T11:23:38;22.40;99.90
37310;DHT22;23195;47.744;7.358;2022-10-29T11:26:16;22.40;99.90
37310;DHT22;23195;47.744;7.358;2022-10-29T11:42:33;22.60;99.90
37310;DHT22;23195;47.744;7.358;2022-10-29T11:45:03;22.60;99.90
37310;DHT22;23195;47.744;7.358;2022-10-29T11:53:21;22.70;99.90
37310;DHT22;23195;47.744;7.358;2022-10-29T11:56:06;22.90;99.90
37310;DHT22;23195;47.744;7.358;2022-10-29T11:58:39;23.00;99.90
37310;DHT22;23195;47.744;7.358;2022-10-29T12:04:29;23.00;99.90
37310;DHT22;23195;47.744;7.358;2022-10-29T12:06:49;23.10;99.90
37310;DHT22;23195;47.744;7.358;2022-10-29T12:15:25;23.30;99.90
37310;DHT22;23195;47.744;7.358;2022-10-29T12:20:26;23.40;99.90
37310;DHT22;23195;47.744;7.358;2022-10-29T12:23:00;23.50;99.90
37310;DHT22;23195;47.744;7.358;2022-10-29T12:25:44;23.60;99.90
37310;DHT22;23195;47.744;7.358;2022-10-29T12:28:40;23.60;99.90
37310;DHT22;23195;47.744;7.358;2022-10-29T12:31:15;23.70;99.90
37310;DHT22;23195;47.744;7.358;2022-10-29T12:36:49;23.70;99.90
37310;DHT22;23195;47.744;7.358;2022-10-29T12:39:30;23.70;99.90
37310;DHT22;23195;47.744;7.358;2022-10-29T12:42:06;23.80;99.90
37310;DHT22;23195;47.744;7.358;2022-10-29T12:53:15;23.90;99.90
37310;DHT22;23195;47.744;7.358;2022-10-29T12:55:45;24.10;99.90
37310;DHT22;23195;47.744;7.358;2022-10-29T12:58:52;24.20;99.90
37310;DHT22;23195;47.744;7.358;2022-10-29T13:06:46;24.10;99.90
37310;DHT22;23195;47.744;7.358;2022-10-29T13:09:19;24.00;99.90
37310;DHT22;23195;47.744;7.358;2022-10-29T13:12:00;24.10;99.90
37310;DHT22;23195;47.744;7.358;2022-10-29T13:14:50;24.10;99.90
37310;DHT22;23195;47.744;7.358;2022-10-29T13:17:38;24.10;99.90
37310;DHT22;23195;47.744;7.358;2022-10-29T13:22:56;24.10;99.90
37310;DHT22;23195;47.744;7.358;2022-10-29T13:30:42;24.10;99.90
37310;DHT22;23195;47.744;7.358;2022-10-29T13:33:47;24.10;99.90
37310;DHT22;23195;47.744;7.358;2022-10-29T13:38:41;24.10;99.90
37310;DHT22;23195;47.744;7.358;2022-10-29T13:41:13;24.10;99.90
37310;DHT22;23195;47.744;7.358;2022-10-29T13:43:41;24.10;99.90
37310;DHT22;23195;47.744;7.358;2022-10-29T13:46:24;24.00;99.90
37310;DHT22;23195;47.744;7.358;2022-10-29T13:48:52;24.10;99.90
37310;DHT22;23195;47.744;7.358;2022-10-29T13:51:26;24.10;99.90
37310;DHT22;23195;47.744;7.358;2022-10-29T13:53:58;24.20;99.90
37310;DHT22;23195;47.744;7.358;2022-10-29T13:56:47;24.20;99.90
37310;DHT22;23195;47.744;7.358;2022-10-29T13:59:22;24.30;99.90
37310;DHT22;23195;47.744;7.358;2022-10-29T14:04:52;24.30;99.90
37310;DHT22;23195;47.744;7.358;2022-10-29T14:07:25;24.30;99.90
37310;DHT22;23195;47.744;7.358;2022-10-29T14:09:55;24.20;99.90
37310;DHT22;23195;47.744;7.358;2022-10-29T14:12:26;24.20;99.90
37310;DHT22;23195;47.744;7.358;2022-10-29T14:15:08;24.20;99.90
37310;DHT22;23195;47.744;7.358;2022-10-29T14:17:35;24.10;99.90
37310;DHT22;23195;47.744;7.358;2022-10-29T14:20:00;24.10;99.90
37310;DHT22;23195;47.744;7.358;2022-10-29T14:22:37;24.10;99.90
37310;DHT22;23195;47.744;7.358;2022-10-29T14:25:38;23.90;99.90
37310;DHT22;23195;47.744;7.358;2022-10-29T14:30:47;23.60;99.90
37310;DHT22;23195;47.744;7.358;2022-10-29T14:33:36;23.50;99.90
37310;DHT22;23195;47.744;7.358;2022-10-29T14:36:39;23.40;99.90
37310;DHT22;23195;47.744;7.358;2022-10-29T14:41:45;23.30;99.90
37310;DHT22;23195;47.744;7.358;2022-10-29T14:44:17;23.20;99.90
37310;DHT22;23195;47.744;7.358;2022-10-29T14:46:53;23.20;99.90
37310;DHT22;23195;47.744;7.358;2022-10-29T14:49:23;23.10;99.90
37310;DHT22;23195;47.744;7.358;2022-10-29T14:52:07;23.10;99.90
37310;DHT22;23195;47.744;7.358;2022-10-29T14:54:40;23.10;99.90
37310;DHT22;23195;47.744;7.358;2022-10-29T14:57:13;23.10;99.90
37310;DHT22;23195;47.744;7.358;2022-10-29T14:59:46;23.00;99.90
37310;DHT22;23195;47.744;7.358;2022-10-29T15:02:13;22.90;99.90
37310;DHT22;23195;47.744;7.358;2022-10-29T15:04:59;22.70;99.90
37310;DHT22;23195;47.744;7.358;2022-10-29T15:07:40;22.80;99.90
37310;DHT22;23195;47.744;7.358;2022-10-29T15:10:22;22.70;99.90
37310;DHT22;23195;47.744;7.358;2022-10-29T15:12:49;22.60;99.90
37310;DHT22;23195;47.744;7.358;2022-10-29T15:18:18;22.40;99.90
37310;DHT22;23195;47.744;7.358;2022-10-29T15:20:46;22.40;99.90
37310;DHT22;23195;47.744;7.358;2022-10-29T15:23:19;22.20;99.90
37310;DHT22;23195;47.744;7.358;2022-10-29T15:25:48;22.10;99.90
37310;DHT22;23195;47.744;7.358;2022-10-29T15:28:26;22.00;99.90
37310;DHT22;23195;47.744;7.358;2022-10-29T15:30:53;21.90;99.90
37310;DHT22;23195;47.744;7.358;2022-10-29T15:33:27;21.80;99.90
37310;DHT22;23195;47.744;7.358;2022-10-29T15:35:57;21.60;99.90
37310;DHT22;23195;47.744;7.358;2022-10-29T15:43:52;21.20;99.90
37310;DHT22;23195;47.744;7.358;2022-10-29T15:46:25;21.10;99.90
37310;DHT22;23195;47.744;7.358;2022-10-29T15:48:51;21.00;99.90
37310;DHT22;23195;47.744;7.358;2022-10-29T15:51:22;20.90;99.90
37310;DHT22;23195;47.744;7.358;2022-10-29T15:53:50;20.80;99.90
37310;DHT22;23195;47.744;7.358;2022-10-29T15:56:16;20.80;99.90
37310;DHT22;23195;47.744;7.358;2022-10-29T15:58:42;20.70;99.90
37310;DHT22;23195;47.744;7.358;2022-10-29T16:01:08;20.70;99.90
37310;DHT22;23195;47.744;7.358;2022-10-29T16:03:36;20.60;99.90
37310;DHT22;23195;47.744;7.358;2022-10-29T16:06:04;20.50;99.90
37310;DHT22;23195;47.744;7.358;2022-10-29T16:08:36;20.30;99.90
37310;DHT22;23195;47.744;7.358;2022-10-29T16:11:05;20.10;99.90
37310;DHT22;23195;47.744;7.358;2022-10-29T16:13:34;19.90;99.90
37310;DHT22;23195;47.744;7.358;2022-10-29T16:16:00;19.80;99.90
37310;DHT22;23195;47.744;7.358;2022-10-29T16:18:26;19.60;99.90
37310;DHT22;23195;47.744;7.358;2022-10-29T16:20:58;19.50;99.90
37310;DHT22;23195;47.744;7.358;2022-10-29T16:23:27;19.40;99.90
37310;DHT22;23195;47.744;7.358;2022-10-29T16:25:58;19.20;99.90
37310;DHT22;23195;47.744;7.358;2022-10-29T16:31:19;19.10;99.90
37310;DHT22;23195;47.744;7.358;2022-10-29T16:33:49;19.00;99.90
37310;DHT22;23195;47.744;7.358;2022-10-29T16:36:16;18.90;99.90
37310;DHT22;23195;47.744;7.358;2022-10-29T16:38:41;18.90;99.90
37310;DHT22;23195;47.744;7.358;2022-10-29T16:41:17;18.90;99.90
37310;DHT22;23195;47.744;7.358;2022-10-29T16:43:44;18.80;99.90
37310;DHT22;23195;47.744;7.358;2022-10-29T16:46:13;18.80;99.90
37310;DHT22;23195;47.744;7.358;2022-10-29T16:48:39;18.70;99.90
37310;DHT22;23195;47.744;7.358;2022-10-29T16:51:16;18.70;99.90
37310;DHT22;23195;47.744;7.358;2022-10-29T16:53:41;18.50;99.90
37310;DHT22;23195;47.744;7.358;2022-10-29T16:56:07;18.50;99.90
37310;DHT22;23195;47.744;7.358;2022-10-29T16:58:36;18.40;99.90
37310;DHT22;23195;47.744;7.358;2022-10-29T17:01:06;18.30;99.90
37310;DHT22;23195;47.744;7.358;2022-10-29T17:03:33;18.20;99.90
37310;DHT22;23195;47.744;7.358;2022-10-29T17:06:07;18.10;99.90
37310;DHT22;23195;47.744;7.358;2022-10-29T17:08:34;18.00;99.90
37310;DHT22;23195;47.744;7.358;2022-10-29T17:11:02;17.90;99.90
37310;DHT22;23195;47.744;7.358;2022-10-29T17:13:28;17.80;99.90
37310;DHT22;23195;47.744;7.358;2022-10-29T17:18:46;17.80;99.90
37310;DHT22;23195;47.744;7.358;2022-10-29T17:21:15;17.50;99.90
37310;DHT22;23195;47.744;7.358;2022-10-29T17:23:40;17.50;99.90
37310;DHT22;23195;47.744;7.358;2022-10-29T17:26:06;17.40;99.90
37310;DHT22;23195;47.744;7.358;2022-10-29T17:28:33;17.30;99.90
37310;DHT22;23195;47.744;7.358;2022-10-29T17:31:09;17.30;99.90
37310;DHT22;23195;47.744;7.358;2022-10-29T17:33:38;17.30;99.90
37310;DHT22;23195;47.744;7.358;2022-10-29T17:36:11;17.30;99.90
37310;DHT22;23195;47.744;7.358;2022-10-29T17:38:37;17.30;99.90
37310;DHT22;23195;47.744;7.358;2022-10-29T17:41:03;17.20;99.90
37310;DHT22;23195;47.744;7.358;2022-10-29T17:43:29;17.20;99.90
37310;DHT22;23195;47.744;7.358;2022-10-29T17:45:55;17.20;99.90
37310;DHT22;23195;47.744;7.358;2022-10-29T17:48:21;17.20;99.90
37310;DHT22;23195;47.744;7.358;2022-10-29T17:51:00;17.20;99.90
37310;DHT22;23195;47.744;7.358;2022-10-29T17:53:28;17.10;99.90
37310;DHT22;23195;47.744;7.358;2022-10-29T17:55:58;17.10;99.90
37310;DHT22;23195;47.744;7.358;2022-10-29T17:58:24;17.00;99.90
37310;DHT22;23195;47.744;7.358;2022-10-29T18:00:50;17.00;99.90
37310;DHT22;23195;47.744;7.358;2022-10-29T18:03:16;16.90;99.90
37310;DHT22;23195;47.744;7.358;2022-10-29T18:05:41;16.80;99.90
37310;DHT22;23195;47.744;7.358;2022-10-29T18:08:07;16.80;99.90
37310;DHT22;23195;47.744;7.358;2022-10-29T18:10:34;16.80;99.90
37310;DHT22;23195;47.744;7.358;2022-10-29T18:13:00;16.70;99.90
37310;DHT22;23195;47.744;7.358;2022-10-29T18:15:26;16.70;99.90
37310;DHT22;23195;47.744;7.358;2022-10-29T18:17:51;16.70;99.90
37310;DHT22;23195;47.744;7.358;2022-10-29T18:20:17;16.60;99.90
37310;DHT22;23195;47.744;7.358;2022-10-29T18:22:52;16.50;99.90
37310;DHT22;23195;47.744;7.358;2022-10-29T18:25:18;16.50;99.90
37310;DHT22;23195;47.744;7.358;2022-10-29T18:27:44;16.50;99.90
37310;DHT22;23195;47.744;7.358;2022-10-29T18:30:10;16.50;99.90
37310;DHT22;23195;47.744;7.358;2022-10-29T18:32:35;16.40;99.90
37310;DHT22;23195;47.744;7.358;2022-10-29T18:35:01;16.40;99.90
37310;DHT22;23195;47.744;7.358;2022-10-29T18:37:28;16.40;99.90
37310;DHT22;23195;47.744;7.358;2022-10-29T18:39:54;16.30;99.90
37310;DHT22;23195;47.744;7.358;2022-10-29T18:42:23;16.40;99.90
37310;DHT22;23195;47.744;7.358;2022-10-29T18:44:49;16.30;99.90
37310;DHT22;23195;47.744;7.358;2022-10-29T18:47:15;16.30;99.90
37310;DHT22;23195;47.744;7.358;2022-10-29T18:49:41;16.30;99.90
37310;DHT22;23195;47.744;7.358;2022-10-29T18:52:06;16.30;99.90
37310;DHT22;23195;47.744;7.358;2022-10-29T18:54:32;16.20;99.90
37310;DHT22;23195;47.744;7.358;2022-10-29T18:56:58;16.20;99.90
37310;DHT22;23195;47.744;7.358;2022-10-29T18:59:24;16.20;99.90
37310;DHT22;23195;47.744;7.358;2022-10-29T19:01:50;16.20;99.90
37310;DHT22;23195;47.744;7.358;2022-10-29T19:04:15;16.20;99.90
37310;DHT22;23195;47.744;7.358;2022-10-29T19:06:41;16.10;99.90
37310;DHT22;23195;47.744;7.358;2022-10-29T19:09:09;16.70;99.90
37310;DHT22;23195;47.744;7.358;2022-10-29T19:11:35;16.00;99.90
37310;DHT22;23195;47.744;7.358;2022-10-29T19:14:04;16.00;99.90
37310;DHT22;23195;47.744;7.358;2022-10-29T19:16:31;16.00;99.90
37310;DHT22;23195;47.744;7.358;2022-10-29T19:19:09;16.00;99.90
37310;DHT22;23195;47.744;7.358;2022-10-29T19:21:36;16.20;99.90
37310;DHT22;23195;47.744;7.358;2022-10-29T19:24:03;16.20;99.90
37310;DHT22;23195;47.744;7.358;2022-10-29T19:26:31;16.20;99.90
37310;DHT22;23195;47.744;7.358;2022-10-29T19:28:59;16.30;99.90
37310;DHT22;23195;47.744;7.358;2022-10-29T19:31:27;16.30;99.90
37310;DHT22;23195;47.744;7.358;2022-10-29T19:33:57;16.30;99.90
37310;DHT22;23195;47.744;7.358;2022-10-29T19:36:24;16.40;99.90
37310;DHT22;23195;47.744;7.358;2022-10-29T19:38:50;16.50;99.90
37310;DHT22;23195;47.744;7.358;2022-10-29T19:41:16;16.50;99.90
37310;DHT22;23195;47.744;7.358;2022-10-29T19:43:43;16.50;99.90
37310;DHT22;23195;47.744;7.358;2022-10-29T19:46:11;16.40;99.90
37310;DHT22;23195;47.744;7.358;2022-10-29T19:48:38;16.30;99.90
37310;DHT22;23195;47.744;7.358;2022-10-29T19:51:04;16.30;99.90
37310;DHT22;23195;47.744;7.358;2022-10-29T19:53:36;16.20;99.90
37310;DHT22;23195;47.744;7.358;2022-10-29T19:56:02;16.10;99.90
37310;DHT22;23195;47.744;7.358;2022-10-29T19:58:28;16.00;99.90
37310;DHT22;23195;47.744;7.358;2022-10-29T20:01:04;16.00;99.90
37310;DHT22;23195;47.744;7.358;2022-10-29T20:03:33;15.80;99.90
37310;DHT22;23195;47.744;7.358;2022-10-29T20:05:58;16.00;99.90
37310;DHT22;23195;47.744;7.358;2022-10-29T20:08:24;16.00;99.90
37310;DHT22;23195;47.744;7.358;2022-10-29T20:10:57;16.30;99.90
37310;DHT22;23195;47.744;7.358;2022-10-29T20:13:24;16.50;99.90
37310;DHT22;23195;47.744;7.358;2022-10-29T20:15:51;16.40;99.90
37310;DHT22;23195;47.744;7.358;2022-10-29T20:18:17;16.20;99.90
37310;DHT22;23195;47.744;7.358;2022-10-29T20:20:43;16.20;99.90
37310;DHT22;23195;47.744;7.358;2022-10-29T20:23:09;16.10;99.90
37310;DHT22;23195;47.744;7.358;2022-10-29T20:25:35;16.00;99.90
37310;DHT22;23195;47.744;7.358;2022-10-29T20:28:04;16.00;99.90
37310;DHT22;23195;47.744;7.358;2022-10-29T20:30:30;15.80;99.90
37310;DHT22;23195;47.744;7.358;2022-10-29T20:32:55;15.80;99.90
37310;DHT22;23195;47.744;7.358;2022-10-29T20:35:21;15.80;99.90
37310;DHT22;23195;47.744;7.358;2022-10-29T20:37:47;15.70;99.90
37310;DHT22;23195;47.744;7.358;2022-10-29T20:40:13;15.70;99.90
37310;DHT22;23195;47.744;7.358;2022-10-29T20:42:39;15.60;99.90
37310;DHT22;23195;47.744;7.358;2022-10-29T20:45:05;15.60;99.90
37310;DHT22;23195;47.744;7.358;2022-10-29T20:47:31;15.60;99.90
37310;DHT22;23195;47.744;7.358;2022-10-29T20:49:57;15.40;99.90
37310;DHT22;23195;47.744;7.358;2022-10-29T20:52:23;15.50;99.90
37310;DHT22;23195;47.744;7.358;2022-10-29T20:54:49;15.50;99.90
37310;DHT22;23195;47.744;7.358;2022-10-29T20:57:14;14.80;99.90
37310;DHT22;23195;47.744;7.358;2022-10-29T20:59:40;15.50;99.90
37310;DHT22;23195;47.744;7.358;2022-10-29T21:02:08;15.50;99.90
37310;DHT22;23195;47.744;7.358;2022-10-29T21:04:33;15.50;99.90
37310;DHT22;23195;47.744;7.358;2022-10-29T21:06:59;15.60;99.90
37310;DHT22;23195;47.744;7.358;2022-10-29T21:09:31;16.10;99.90
37310;DHT22;23195;47.744;7.358;2022-10-29T21:12:00;16.30;99.90
37310;DHT22;23195;47.744;7.358;2022-10-29T21:14:26;16.60;99.90
37310;DHT22;23195;47.744;7.358;2022-10-29T21:17:06;16.80;99.90
37310;DHT22;23195;47.744;7.358;2022-10-29T21:19:32;16.90;99.90
37310;DHT22;23195;47.744;7.358;2022-10-29T21:21:58;17.20;99.90
37310;DHT22;23195;47.744;7.358;2022-10-29T21:24:26;17.20;99.90
37310;DHT22;23195;47.744;7.358;2022-10-29T21:26:52;17.50;99.90
37310;DHT22;23195;47.744;7.358;2022-10-29T21:29:18;17.50;99.90
37310;DHT22;23195;47.744;7.358;2022-10-29T21:31:47;17.20;99.90
37310;DHT22;23195;47.744;7.358;2022-10-29T21:34:14;17.40;99.90
37310;DHT22;23195;47.744;7.358;2022-10-29T21:36:43;17.50;99.90
37310;DHT22;23195;47.744;7.358;2022-10-29T21:39:14;17.50;99.90
37310;DHT22;23195;47.744;7.358;2022-10-29T21:41:46;17.40;99.90
37310;DHT22;23195;47.744;7.358;2022-10-29T21:44:15;17.50;99.90
37310;DHT22;23195;47.744;7.358;2022-10-29T21:46:41;17.40;99.90
37310;DHT22;23195;47.744;7.358;2022-10-29T21:49:07;17.50;99.90
37310;DHT22;23195;47.744;7.358;2022-10-29T21:51:33;17.50;99.90
37310;DHT22;23195;47.744;7.358;2022-10-29T21:53:58;17.50;99.90
37310;DHT22;23195;47.744;7.358;2022-10-29T21:56:27;17.40;99.90
37310;DHT22;23195;47.744;7.358;2022-10-29T21:58:53;17.40;99.90
37310;DHT22;23195;47.744;7.358;2022-10-29T22:01:19;17.40;99.90
37310;DHT22;23195;47.744;7.358;2022-10-29T22:03:46;17.40;99.90
37310;DHT22;23195;47.744;7.358;2022-10-29T22:06:15;17.50;99.90
37310;DHT22;23195;47.744;7.358;2022-10-29T22:08:41;17.50;99.90
37310;DHT22;23195;47.744;7.358;2022-10-29T22:11:10;17.50;99.90
37310;DHT22;23195;47.744;7.358;2022-10-29T22:13:37;17.60;99.90
